Terminal Aerodrome Forecast
Issued by NWS Austin/San Antonio, TX

Home | Current Version | Previous Version | Text Only | Print | Product List | Glossary On
Versions: 1 2 3 4 5 6 7 8 9 10 11 12
000
FTUS44 KEWX 120524
TAFAUS
TAF
KAUS 120524Z 1206/1312 19007KT P6SM FEW250
     FM121100 21004KT 4SM BR SCT005
      TEMPO 1213/1215 6SM BKN006
     FM121600 36008KT P6SM FEW250
     FM130900 02006KT P6SM SCT020=

USA.gov is the U.S. government's official web portal to all federal, state and local government web resources and services.